Terminal Aerodrome Forecast
Issued by NWS Sioux Falls, SD

Home | Current Version | Previous Version | Graphics & Text | Print | Product List | Glossary On
Versions: 1 2 3 4 5 6 7 8 9 10 11 12 13 14
922
FTUS43 KFSD 211727
TAFHON
TAF
KHON 211727Z 2118/2218 17008KT P6SM SCT250
     FM212000 11005KT P6SM SCT150
     FM220400 VRB04KT P6SM SCT080
     FM220900 31008KT P6SM FEW250=

USA.gov is the U.S. government's official web portal to all federal, state and local government web resources and services.